Time;durP1;ratioP1;P1;durP2;ratioP2;P2;SDS_P1;SDS_P2;PMS_P1;PMS_P2;Temp;Humidity;BMP_temperature;BMP_pressure;BME280_temperature;BME280_humidity;BME280_pressure;Samples;Min_cycle;Max_cycle;Signal;HPM_P1;HPM_P2
2021/11/16 18:55:17;;;;;;;49.58;25.08;;;;;;;3.72;95.32;100264.58;1859066;74;22039;-67
2021/11/16 18:57:44;;;;;;;51.75;27.93;;;;;;;3.66;95.32;100258.64;1819775;77;20991;-66
2021/11/16 19:00:35;;;;;;;117.57;56.33;;;;;;;3.65;95.31;100260.37;1814832;77;21148;-68
2021/11/16 19:03:02;;;;;;;191.53;93.52;;;;;;;3.61;95.27;100255.23;1700991;82;21036;-67
2021/11/16 19:05:31;;;;;;;90.35;54.80;;;;;;;3.54;95.21;100251.88;1699752;82;21106;-68
2021/11/16 19:08:01;;;;;;;76.82;42.20;;;;;;;3.54;95.34;100251.88;1704156;81;21100;-66
2021/11/16 19:10:27;;;;;;;58.85;33.83;;;;;;;3.54;95.41;100251.88;1706833;81;20969;-67
2021/11/16 19:12:54;;;;;;;83.45;48.63;;;;;;;3.53;95.34;100243.72;1704963;81;22326;-69
2021/11/16 19:15:23;;;;;;;69.53;39.75;;;;;;;3.50;95.30;100247.59;1701994;81;21139;-70
2021/11/16 19:17:53;;;;;;;47.75;25.40;;;;;;;3.49;95.35;100244.61;1657240;82;20925;-70
2021/11/16 19:20:21;;;;;;;51.73;27.22;;;;;;;3.47;95.30;100248.92;1688122;81;21069;-68
2021/11/16 19:22:51;;;;;;;47.08;24.82;;;;;;;3.47;95.36;100250.21;1707132;81;21086;-69
2021/11/16 19:25:22;;;;;;;43.45;23.60;;;;;;;3.47;95.31;100251.06;1706757;82;21245;-68
2021/11/16 19:28:07;;;;;;;43.30;24.30;;;;;;;3.47;95.33;100255.38;1707794;81;21030;-68
2021/11/16 19:30:32;;;;;;;44.33;23.55;;;;;;;3.50;95.39;100250.17;1705057;82;21770;-68
2021/11/16 19:33:03;;;;;;;37.58;22.17;;;;;;;3.53;95.45;100245.02;1707875;82;21111;-68
2021/11/16 19:35:44;;;;;;;41.33;22.75;;;;;;;3.54;95.42;100247.56;1705731;82;21139;-68
2021/11/16 19:38:06;;;;;;;44.38;23.77;;;;;;;3.54;95.41;100244.13;1707375;81;21905;-68
2021/11/16 19:40:41;;;;;;;48.68;26.45;;;;;;;3.53;95.27;100245.02;1704550;81;21273;-69
2021/11/16 19:43:11;;;;;;;48.02;24.45;;;;;;;3.53;95.27;100242.44;1682041;82;21080;-69
2021/11/16 19:45:45;;;;;;;48.85;25.27;;;;;;;3.51;95.27;100240.30;1705659;82;21564;-69
2021/11/16 19:48:14;;;;;;;41.60;24.35;;;;;;;3.52;95.35;100240.70;1706662;81;20988;-69
2021/11/16 19:50:43;;;;;;;48.02;25.10;;;;;;;3.52;95.34;100235.53;1710371;81;21881;-69
2021/11/16 19:53:10;;;;;;;44.13;24.80;;;;;;;3.57;95.61;100236.34;1708435;81;21059;-69
2021/11/16 19:55:40;;;;;;;45.78;24.65;;;;;;;3.58;95.42;100230.30;1704702;81;21053;-68
2021/11/16 19:58:11;;;;;;;43.73;24.72;;;;;;;3.55;95.23;100229.05;1709705;81;21005;-69
2021/11/16 20:00:40;;;;;;;46.02;24.82;;;;;;;3.54;95.36;100223.47;1677683;83;21140;-69
2021/11/16 20:03:15;;;;;;;47.60;23.92;;;;;;;3.55;95.44;100222.59;1724348;81;20997;-68
2021/11/16 20:05:39;;;;;;;44.63;25.68;;;;;;;3.55;95.37;100214.84;1722885;81;20963;-68
2021/11/16 20:08:07;;;;;;;48.33;25.92;;;;;;;3.52;95.30;100214.88;1720171;81;22030;-69
2021/11/16 20:10:34;;;;;;;;;;;;;;;3.53;95.31;100211.45;1731103;81;21003;-69
2021/11/16 20:13:01;;;;;;;49.35;27.40;;;;;;;3.56;95.56;100211.41;1698368;81;20279;-69
2021/11/16 20:15:28;;;;;;;50.98;28.30;;;;;;;3.60;95.71;100213.08;1703362;81;21298;-69
2021/11/16 20:17:58;;;;;;;53.78;26.33;;;;;;;3.59;95.51;100221.70;1721521;81;21084;-69
2021/11/16 20:20:27;;;;;;;50.23;27.35;;;;;;;3.57;95.46;100207.95;1725933;81;21660;-69
2021/11/16 20:22:56;;;;;;;50.95;26.40;;;;;;;3.55;95.41;100199.35;1721270;81;21004;-68
2021/11/16 20:25:23;;;;;;;57.20;27.50;;;;;;;3.53;95.40;100194.22;1726365;81;21099;-68
2021/11/16 20:27:56;;;;;;;53.10;27.32;;;;;;;3.50;95.28;100199.83;1727478;81;21309;-68
2021/11/16 20:30:28;;;;;;;49.63;26.00;;;;;;;3.47;95.33;100198.58;1724242;81;20947;-70
2021/11/16 20:32:57;;;;;;;54.33;27.55;;;;;;;3.47;95.49;100196.00;1727761;81;21060;-69
2021/11/16 20:35:25;;;;;;;54.83;28.45;;;;;;;3.47;95.43;100193.41;1723725;81;21115;-69
2021/11/16 20:38:10;;;;;;;61.80;28.45;;;;;;;3.47;95.53;100191.69;1726798;81;21007;-69
2021/11/16 20:43:20;;;;;;;57.23;28.52;;;;;;;3.48;95.38;100188.25;1703613;82;21059;-70
2021/11/16 21:01:54;;;;;;;63.58;30.23;;;;;;;3.36;95.47;100173.75;1730745;81;21033;-69
2021/11/16 21:04:24;;;;;;;56.58;30.20;;;;;;;3.34;95.56;100172.91;1740924;80;21106;-70
2021/11/16 21:06:54;;;;;;;56.28;31.00;;;;;;;3.30;95.52;100175.08;1736343;81;21854;-70
2021/11/16 21:09:23;;;;;;;58.45;30.97;;;;;;;3.30;95.64;100176.37;1708897;82;20955;-69
2021/11/16 21:11:51;;;;;;;55.78;29.52;;;;;;;3.30;95.68;100166.05;1707678;82;21659;-69
2021/11/16 21:14:22;;;;;;;54.08;29.42;;;;;;;3.33;95.75;100170.33;1738349;80;20952;-70
2021/11/16 21:16:52;;;;;;;62.80;31.23;;;;;;;3.31;95.66;100163.91;1740465;81;21056;-70
2021/11/16 21:19:19;;;;;;;53.33;27.93;;;;;;;3.29;95.73;100152.73;1737557;80;21085;-69
2021/11/16 21:21:48;;;;;;;58.28;29.00;;;;;;;3.34;95.89;100158.71;1736539;80;22239;-68
2021/11/16 21:24:19;;;;;;;54.35;29.72;;;;;;;3.34;95.76;100160.00;1733891;81;21041;-68
2021/11/16 21:26:48;;;;;;;52.53;28.77;;;;;;;3.36;95.74;100156.09;1735739;80;21147;-68
2021/11/16 21:29:15;;;;;;;58.02;28.73;;;;;;;3.36;95.63;100152.22;1736179;80;21087;-68
2021/11/16 21:31:43;;;;;;;55.95;28.10;;;;;;;3.41;95.81;100152.19;1738538;80;21085;-68
2021/11/16 21:34:11;;;;;;;55.23;29.30;;;;;;;3.44;95.84;100144.41;1735795;80;21421;-68
2021/11/16 21:36:38;;;;;;;51.07;25.77;;;;;;;3.45;95.80;100146.13;1739157;80;21016;-69
2021/11/16 21:39:07;;;;;;;48.80;26.23;;;;;;;3.51;95.97;100149.48;1741199;80;21086;-68
2021/11/16 21:41:37;;;;;;;44.18;24.10;;;;;;;3.53;95.82;100143.03;1738394;80;20913;-68
2021/11/16 21:44:06;;;;;;;44.13;22.55;;;;;;;3.53;95.68;100145.61;1736190;80;21680;-68
2021/11/16 21:46:37;;;;;;;41.90;23.02;;;;;;;3.50;95.66;100141.74;1734628;80;21018;-68
2021/11/16 21:49:07;;;;;;;39.23;22.07;;;;;;;3.50;95.71;100142.63;1742825;80;21583;-68
2021/11/16 21:51:35;;;;;;;39.50;23.40;;;;;;;3.51;95.73;100130.56;1739267;80;21096;-68
2021/11/16 21:54:03;;;;;;;41.13;22.80;;;;;;;3.55;95.79;100133.07;1738317;80;21126;-69
2021/11/16 21:56:29;;;;;;;44.83;24.15;;;;;;;3.56;95.84;100127.05;1735216;81;21193;-69
2021/11/16 21:58:56;;;;;;;39.07;22.63;;;;;;;3.62;96.07;100125.28;1735866;80;21066;-68
2021/11/16 22:01:23;;;;;;;40.17;24.05;;;;;;;3.66;96.05;100131.66;1738641;81;21029;-68
2021/11/16 22:03:50;;;;;;;41.90;23.15;;;;;;;3.66;95.84;100134.23;1739268;80;21624;-69
2021/11/16 22:06:27;;;;;;;35.58;22.85;;;;;;;3.68;95.89;100131.20;1715216;82;21103;-68
2021/11/16 22:09:02;;;;;;;36.10;22.13;;;;;;;3.72;95.94;100132.02;1735936;80;21072;-68
2021/11/16 22:13:49;;;;;;;38.42;22.58;;;;;;;3.71;95.74;100120.83;1736872;81;21052;-69
2021/11/16 22:16:26;;;;;;;35.23;22.00;;;;;;;3.71;95.82;100111.80;1734079;80;26755;-68
2021/11/16 22:18:44;;;;;;;37.17;22.20;;;;;;;3.71;95.77;100110.50;1733418;81;21169;-68
2021/11/16 22:21:12;;;;;;;36.95;22.67;;;;;;;3.75;95.98;100109.61;1739618;81;21298;-69
2021/11/16 22:23:39;;;;;;;37.48;20.90;;;;;;;3.80;96.11;100106.50;1736331;81;21830;-68
2021/11/16 22:26:05;;;;;;;41.53;21.23;;;;;;;3.84;96.01;100106.45;1735784;81;21573;-68
2021/11/16 22:28:33;;;;;;;32.95;20.60;;;;;;;3.81;95.94;100110.81;1737647;80;21006;-68
2021/11/16 22:31:00;;;;;;;35.75;21.70;;;;;;;3.83;96.01;100109.92;1733362;81;21225;-67
2021/11/16 22:33:27;;;;;;;38.50;21.40;;;;;;;3.80;96.29;100088.41;1735351;81;21859;-68
2021/11/16 22:35:56;;;;;;;33.55;20.32;;;;;;;3.80;96.29;100088.41;1732479;80;21599;-68
2021/11/16 22:38:23;;;;;;;38.88;21.27;;;;;;;3.92;96.05;100103.33;1736341;80;20998;-68
2021/11/16 22:40:51;;;;;;;41.15;21.25;;;;;;;3.90;95.97;100105.10;1706819;80;21034;-68
2021/11/16 22:43:18;;;;;;;39.15;21.50;;;;;;;3.90;96.02;100107.69;1736602;81;21032;-68
2021/11/16 22:45:45;;;;;;;37.73;21.62;;;;;;;3.91;95.97;100111.97;1735284;80;21084;-68
2021/11/16 22:48:12;;;;;;;37.80;22.15;;;;;;;3.89;95.95;100108.54;1737073;80;21021;-68
2021/11/16 22:50:39;;;;;;;38.70;22.42;;;;;;;3.91;96.08;100106.80;1714039;81;21001;-68
2021/11/16 22:53:06;;;;;;;38.92;21.65;;;;;;;3.92;96.01;100103.33;1712665;80;21092;-68
2021/11/16 22:55:33;;;;;;;37.25;23.42;;;;;;;3.91;95.96;100098.61;1732926;80;21023;-68
2021/11/16 22:58:01;;;;;;;39.15;22.32;;;;;;;3.94;96.17;100105.46;1704143;82;22639;-68
